createdAt,value
2019-06-01T00:00:11.009Z,0.60
2019-06-01T00:02:29.601Z,1.13
2019-06-01T00:04:58.241Z,0.60
2019-06-01T00:07:26.877Z,5.23
2019-06-01T00:09:55.514Z,0.80
2019-06-01T00:12:24.082Z,0.60
2019-06-01T00:14:52.655Z,0.70
2019-06-01T00:17:21.225Z,3.40
2019-06-01T00:19:50.320Z,0.50
2019-06-01T00:22:18.965Z,0.70
2019-06-01T00:24:48.058Z,0.57
2019-06-01T00:27:16.623Z,0.50
2019-06-01T00:29:45.257Z,1.50
2019-06-01T00:32:13.777Z,0.73
2019-06-01T00:34:43.521Z,1.53
2019-06-01T00:37:12.187Z,0.70
2019-06-01T00:39:41.664Z,1.53
2019-06-01T00:42:10.258Z,0.50
2019-06-01T00:44:38.831Z,0.67
2019-06-01T00:47:07.399Z,0.60
2019-06-01T00:49:36.070Z,0.50
2019-06-01T00:52:04.696Z,2.10
2019-06-01T00:54:33.244Z,0.73
2019-06-01T00:57:01.797Z,1.90
2019-06-01T00:59:30.460Z,0.57
2019-06-01T01:01:59.040Z,0.57
2019-06-01T01:04:27.610Z,0.50
2019-06-01T01:06:56.147Z,0.50
2019-06-01T01:09:24.701Z,0.80
2019-06-01T01:11:53.392Z,1.07
2019-06-01T01:14:21.932Z,0.50
2019-06-01T01:16:51.663Z,0.40
2019-06-01T01:19:20.276Z,0.70
2019-06-01T01:21:50.349Z,0.70
2019-06-01T01:24:18.945Z,0.50
2019-06-01T01:26:48.473Z,0.53
2019-06-01T01:29:17.142Z,0.90
2019-06-01T01:31:45.629Z,1.00
2019-06-01T01:34:14.186Z,0.87
2019-06-01T01:36:42.757Z,0.73
2019-06-01T01:39:11.321Z,0.63
2019-06-01T01:41:39.831Z,0.60
2019-06-01T01:44:08.403Z,0.80
2019-06-01T01:46:36.955Z,0.83
2019-06-01T01:49:05.581Z,2.30
2019-06-01T01:51:34.141Z,0.50
2019-06-01T01:54:04.489Z,0.53
2019-06-01T01:56:33.173Z,0.90
2019-06-01T01:59:04.132Z,0.47
2019-06-01T02:01:32.001Z,2.50
2019-06-01T02:04:00.501Z,0.70
2019-06-01T02:06:29.541Z,0.60
2019-06-01T02:08:59.216Z,0.97
2019-06-01T02:11:28.029Z,1.37
2019-06-01T02:13:57.795Z,0.70
2019-06-01T02:16:26.483Z,5.60
2019-06-01T02:18:55.957Z,0.80
2019-06-01T02:21:25.489Z,0.60
2019-06-01T02:23:54.847Z,0.60
2019-06-01T02:26:23.712Z,1.67
2019-06-01T02:28:53.173Z,0.90
2019-06-01T02:31:39.767Z,0.67
2019-06-01T02:33:52.058Z,1.30
2019-06-01T02:36:20.630Z,0.70
2019-06-01T02:41:23.926Z,0.70
2019-06-01T02:43:52.488Z,0.60
2019-06-01T02:46:21.063Z,1.17
2019-06-01T02:48:49.559Z,0.60
2019-06-01T02:51:18.209Z,0.80
2019-06-01T02:53:46.774Z,0.60
2019-06-01T02:56:15.347Z,0.60
2019-06-01T02:58:43.987Z,0.70
2019-06-01T03:01:34.219Z,3.07
2019-06-01T03:04:07.782Z,0.93
2019-06-01T03:06:39.408Z,0.80
2019-06-01T03:09:09.986Z,0.80
2019-06-01T03:11:40.151Z,0.53
2019-06-01T03:14:10.616Z,0.80
2019-06-01T03:16:41.298Z,1.27
2019-06-01T03:19:09.975Z,0.77
2019-06-01T03:21:38.815Z,0.60
2019-06-01T03:24:13.249Z,1.47
2019-06-01T03:26:44.188Z,1.17
2019-06-01T03:29:16.486Z,0.67
2019-06-01T03:31:45.715Z,0.60
2019-06-01T03:34:14.512Z,0.80
2019-06-01T03:36:43.812Z,0.60
2019-06-01T03:39:13.109Z,0.87
2019-06-01T03:41:41.969Z,4.10
2019-06-01T03:44:10.609Z,0.60
2019-06-01T03:46:39.173Z,1.90
2019-06-01T03:49:07.911Z,1.13
2019-06-01T03:51:36.548Z,1.90
2019-06-01T03:54:06.852Z,1.10
2019-06-01T03:56:35.817Z,0.60
2019-06-01T03:59:05.088Z,3.93
2019-06-01T04:01:33.930Z,4.33
2019-06-01T04:04:03.063Z,2.40
2019-06-01T04:06:31.834Z,0.80
2019-06-01T04:09:01.574Z,0.40
2019-06-01T04:11:30.295Z,0.67
2019-06-01T04:13:58.824Z,1.13
2019-06-01T04:16:27.491Z,0.57
2019-06-01T04:18:56.145Z,0.80
2019-06-01T04:21:24.715Z,0.70
2019-06-01T04:23:53.324Z,1.13
2019-06-01T04:26:21.961Z,0.70
2019-06-01T04:28:50.494Z,0.60
2019-06-01T04:31:19.029Z,1.40
2019-06-01T04:33:47.658Z,0.57
2019-06-01T04:36:16.258Z,0.70
2019-06-01T04:38:44.828Z,1.47
2019-06-01T04:41:14.109Z,2.57
2019-06-01T04:43:42.796Z,2.00
2019-06-01T04:46:12.338Z,1.07
2019-06-01T04:48:41.290Z,1.43
2019-06-01T04:51:11.713Z,0.97
2019-06-01T04:53:40.219Z,0.60
2019-06-01T04:56:09.085Z,0.83
2019-06-01T04:58:37.878Z,1.43
2019-06-01T05:01:06.918Z,0.77
2019-06-01T05:03:35.595Z,0.73
2019-06-01T05:06:05.066Z,4.13
2019-06-01T05:08:33.826Z,0.63
2019-06-01T05:11:05.228Z,0.53
2019-06-01T05:13:32.855Z,1.17
2019-06-01T05:16:01.495Z,0.97
2019-06-01T05:18:30.138Z,1.23
2019-06-01T05:20:58.706Z,1.73
2019-06-01T05:23:27.387Z,0.40
2019-06-01T05:25:56.021Z,0.73
2019-06-01T05:28:24.695Z,1.30
2019-06-01T05:30:53.333Z,9.53
2019-06-01T05:33:36.506Z,3.50
2019-06-01T05:35:52.291Z,2.73
2019-06-01T05:38:20.839Z,0.80
2019-06-01T05:40:49.404Z,1.30
2019-06-01T05:43:20.871Z,0.73
2019-06-01T05:45:48.300Z,1.57
2019-06-01T05:48:23.617Z,1.73
2019-06-01T05:50:47.294Z,0.93
2019-06-01T05:53:16.721Z,1.50
2019-06-01T05:55:45.298Z,0.90
2019-06-01T05:58:15.104Z,4.83
2019-06-01T06:00:44.403Z,1.00
2019-06-01T06:03:17.766Z,0.93
2019-06-01T06:05:43.279Z,1.00
2019-06-01T06:08:12.707Z,1.43
2019-06-01T06:10:42.337Z,2.83
2019-06-01T06:13:11.151Z,0.90
2019-06-01T06:15:39.839Z,2.93
2019-06-01T06:18:08.324Z,1.23
2019-06-01T06:20:36.936Z,0.77
2019-06-01T06:23:05.562Z,0.70
2019-06-01T06:25:36.350Z,0.80
2019-06-01T06:28:04.514Z,1.67
2019-06-01T06:30:33.156Z,2.37
2019-06-01T06:33:01.838Z,1.47
2019-06-01T06:35:30.396Z,1.80
2019-06-01T06:37:59.029Z,4.40
2019-06-01T06:40:27.707Z,0.90
2019-06-01T06:42:56.346Z,0.83
2019-06-01T06:45:25.035Z,1.60
2019-06-01T06:47:53.598Z,1.60
2019-06-01T06:50:23.457Z,1.20
2019-06-01T06:52:52.199Z,1.17
2019-06-01T06:55:21.940Z,1.77
2019-06-01T06:57:50.502Z,4.57
2019-06-01T07:00:20.616Z,0.57
2019-06-01T07:02:49.276Z,16.87
2019-06-01T07:05:19.217Z,13.17
2019-06-01T07:07:47.997Z,13.93
2019-06-01T07:10:17.896Z,12.50
2019-06-01T07:12:46.704Z,12.70
2019-06-01T07:15:15.341Z,14.57
2019-06-01T07:17:43.856Z,12.57
2019-06-01T07:20:12.502Z,11.03
2019-06-01T07:22:41.019Z,11.80
2019-06-01T07:25:11.131Z,17.50
2019-06-01T07:27:39.793Z,12.60
2019-06-01T07:30:08.430Z,11.30
2019-06-01T07:32:36.996Z,11.63
2019-06-01T07:35:08.696Z,12.10
2019-06-01T07:37:37.266Z,13.20
2019-06-01T07:40:06.612Z,15.50
2019-06-01T07:42:35.665Z,11.03
2019-06-01T07:45:06.532Z,11.50
2019-06-01T07:47:35.223Z,11.50
2019-06-01T07:50:05.355Z,11.63
2019-06-01T07:52:33.994Z,10.13
2019-06-01T07:55:02.581Z,14.33
2019-06-01T07:57:31.800Z,9.90
2019-06-01T08:00:03.164Z,8.23
2019-06-01T08:02:33.002Z,9.00
2019-06-01T08:05:01.586Z,9.50
2019-06-01T08:07:31.202Z,8.15
2019-06-01T08:09:59.985Z,8.55
2019-06-01T08:12:29.653Z,8.07
2019-06-01T08:14:58.481Z,9.45
2019-06-01T08:17:28.101Z,12.15
2019-06-01T08:19:56.793Z,7.75
2019-06-01T08:22:25.996Z,8.65
2019-06-01T08:24:54.622Z,8.43
2019-06-01T08:27:24.348Z,7.12
2019-06-01T08:29:53.168Z,9.38
2019-06-01T08:32:22.642Z,6.75
2019-06-01T08:35:07.315Z,6.62
2019-06-01T08:37:21.715Z,7.30
2019-06-01T08:39:51.763Z,7.20
2019-06-01T08:42:20.391Z,5.50
2019-06-01T08:44:49.026Z,7.97
2019-06-01T08:47:17.706Z,5.87
2019-06-01T08:49:46.269Z,5.28
2019-06-01T08:52:14.871Z,7.55
2019-06-01T08:54:43.410Z,5.37
2019-06-01T08:57:12.077Z,6.83
2019-06-01T08:59:40.731Z,6.10
2019-06-01T09:02:09.360Z,5.05
2019-06-01T09:04:37.973Z,5.90
2019-06-01T09:07:06.618Z,5.67
2019-06-01T09:09:35.332Z,5.00
2019-06-01T09:12:06.490Z,5.12
2019-06-01T09:14:35.598Z,5.70
2019-06-01T09:17:04.337Z,6.10
2019-06-01T09:19:33.580Z,5.80
2019-06-01T09:22:02.231Z,5.33
2019-06-01T09:24:31.935Z,5.22
2019-06-01T09:27:00.673Z,5.62
2019-06-01T09:29:30.051Z,4.65
2019-06-01T09:31:58.836Z,4.30
2019-06-01T09:34:28.437Z,4.28
2019-06-01T09:36:57.053Z,5.30
2019-06-01T09:39:26.599Z,4.42
2019-06-01T09:41:55.270Z,3.42
2019-06-01T09:44:23.897Z,5.15
2019-06-01T09:46:52.543Z,4.78
2019-06-01T09:49:21.178Z,3.45
2019-06-01T09:51:49.818Z,3.80
2019-06-01T09:54:18.423Z,3.52
2019-06-01T09:56:47.062Z,3.90
2019-06-01T09:59:15.729Z,3.72
2019-06-01T10:01:47.559Z,3.25
2019-06-01T10:04:16.276Z,4.17
2019-06-01T10:06:44.919Z,4.75
2019-06-01T10:09:13.493Z,3.50
2019-06-01T10:11:42.465Z,4.00
2019-06-01T10:14:11.239Z,3.90
2019-06-01T10:16:39.828Z,5.25
2019-06-01T10:19:08.490Z,5.00
2019-06-01T10:21:38.041Z,4.70
2019-06-01T10:24:06.807Z,4.40
2019-06-01T10:26:35.726Z,4.83
2019-06-01T10:29:04.906Z,4.90
2019-06-01T10:31:34.681Z,5.00
2019-06-01T10:34:03.761Z,3.30
2019-06-01T10:36:33.961Z,5.72
2019-06-01T10:39:02.717Z,3.47
2019-06-01T10:41:31.348Z,4.12
2019-06-01T10:43:59.847Z,3.80
2019-06-01T10:46:28.458Z,3.85
2019-06-01T10:48:59.720Z,4.60
2019-06-01T10:51:28.351Z,4.28
2019-06-01T10:53:56.861Z,4.70
2019-06-01T10:56:25.425Z,7.55
2019-06-01T10:59:00.121Z,8.08
2019-06-01T11:01:24.261Z,5.33
2019-06-01T11:03:52.933Z,6.50
2019-06-01T11:06:36.237Z,5.30
2019-06-01T11:08:51.884Z,5.40
2019-06-01T11:11:20.442Z,5.40
2019-06-01T11:13:49.040Z,5.60
2019-06-01T11:16:17.690Z,5.37
2019-06-01T11:18:46.365Z,6.40
2019-06-01T11:21:15.002Z,8.45
2019-06-01T11:23:46.383Z,6.33
2019-06-01T11:26:14.001Z,7.08
2019-06-01T11:28:44.235Z,5.10
2019-06-01T11:31:12.846Z,5.50
2019-06-01T11:33:42.037Z,6.37
2019-06-01T11:36:10.959Z,4.10
2019-06-01T11:38:40.440Z,4.08
2019-06-01T11:41:09.145Z,9.60
2019-06-01T11:43:38.653Z,6.42
2019-06-01T11:46:10.215Z,9.00
2019-06-01T11:48:39.316Z,3.65
2019-06-01T11:51:08.103Z,5.28
2019-06-01T11:53:37.332Z,5.03
2019-06-01T11:56:06.089Z,7.15
2019-06-01T11:58:37.249Z,4.22
2019-06-01T12:01:05.925Z,3.67
2019-06-01T12:03:35.544Z,4.12
2019-06-01T12:06:04.670Z,5.67
2019-06-01T12:08:34.226Z,6.33
2019-06-01T12:11:03.080Z,3.50
2019-06-01T12:13:31.558Z,4.17
2019-06-01T12:16:00.127Z,2.70
2019-06-01T12:18:28.739Z,3.10
2019-06-01T12:20:57.371Z,4.60
2019-06-01T12:23:25.861Z,3.47
2019-06-01T12:25:54.534Z,4.65
2019-06-01T12:28:23.084Z,7.42
2019-06-01T12:30:51.609Z,4.15
2019-06-01T12:33:22.922Z,5.20
2019-06-01T12:35:51.539Z,4.97
2019-06-01T12:38:20.213Z,8.10
2019-06-01T12:40:48.846Z,4.95
2019-06-01T12:43:17.486Z,3.33
2019-06-01T12:45:46.048Z,4.62
2019-06-01T12:48:14.630Z,4.00
2019-06-01T12:50:47.799Z,7.12
2019-06-01T12:53:14.383Z,5.47
2019-06-01T12:55:43.016Z,3.90
2019-06-01T12:58:11.617Z,5.08
2019-06-01T13:00:40.415Z,4.92
2019-06-01T13:03:09.089Z,7.55
2019-06-01T13:05:37.654Z,5.75
2019-06-01T13:08:06.331Z,6.33
2019-06-01T13:10:34.898Z,7.20
2019-06-01T13:13:03.569Z,4.15
2019-06-01T13:15:32.198Z,6.35
2019-06-01T13:18:00.728Z,4.08
2019-06-01T13:20:29.294Z,4.40
2019-06-01T13:22:57.960Z,5.97
2019-06-01T13:25:26.595Z,8.40
2019-06-01T13:27:55.200Z,6.78
2019-06-01T13:30:23.836Z,5.35
2019-06-01T13:32:52.840Z,4.75
2019-06-01T13:35:21.638Z,5.83
2019-06-01T13:37:50.974Z,7.00
2019-06-01T13:40:20.549Z,7.05
2019-06-01T13:42:49.250Z,6.90
2019-06-01T13:45:17.999Z,5.60
2019-06-01T13:47:47.651Z,8.68
2019-06-01T13:50:16.802Z,4.97
2019-06-01T13:52:45.826Z,4.65
2019-06-01T13:55:14.823Z,5.35
2019-06-01T13:57:44.219Z,5.08
2019-06-01T14:00:15.850Z,8.20
2019-06-01T14:02:47.674Z,5.22
2019-06-01T14:05:13.760Z,6.50
2019-06-01T14:07:42.337Z,5.25
2019-06-01T14:10:11.087Z,5.60
2019-06-01T14:12:39.599Z,5.10
2019-06-01T14:15:08.454Z,4.97
2019-06-01T14:17:39.733Z,4.85
2019-06-01T14:20:08.818Z,10.18
2019-06-01T14:22:37.489Z,5.50
2019-06-01T14:25:13.579Z,7.12
2019-06-01T14:27:37.974Z,5.67
2019-06-01T14:30:07.719Z,5.78
2019-06-01T14:32:36.238Z,7.15
2019-06-01T14:35:09.017Z,5.35
2019-06-01T14:37:37.624Z,5.87
2019-06-01T14:40:07.256Z,4.95
2019-06-01T14:42:35.861Z,8.58
2019-06-01T14:45:07.364Z,3.50
2019-06-01T14:47:35.934Z,4.67
2019-06-01T14:50:09.228Z,5.20
2019-06-01T14:52:37.899Z,5.62
2019-06-01T14:55:07.867Z,5.67
2019-06-01T14:57:36.515Z,7.90
2019-06-01T15:00:07.392Z,5.08
2019-06-01T15:02:36.053Z,5.08
2019-06-01T15:05:08.940Z,8.48
2019-06-01T15:07:37.606Z,5.92
2019-06-01T15:10:08.239Z,7.83
2019-06-01T15:12:36.882Z,7.58
2019-06-01T15:15:09.360Z,7.60
2019-06-01T15:17:37.950Z,8.30
2019-06-01T15:20:08.584Z,5.90
2019-06-01T15:22:37.219Z,6.12
2019-06-01T15:25:09.334Z,6.08
2019-06-01T15:27:38.010Z,3.95
2019-06-01T15:30:07.688Z,5.45
2019-06-01T15:32:38.897Z,7.47
2019-06-01T15:35:11.620Z,4.62
2019-06-01T15:37:40.189Z,6.65
2019-06-01T15:40:09.522Z,5.78
2019-06-01T15:42:40.885Z,5.65
2019-06-01T15:45:10.719Z,9.98
2019-06-01T15:47:39.366Z,5.95
2019-06-01T15:50:09.351Z,10.03
2019-06-01T15:52:38.057Z,10.70
2019-06-01T15:55:07.792Z,6.28
2019-06-01T15:57:36.428Z,4.78
2019-06-01T16:00:08.969Z,9.93
2019-06-01T16:02:37.622Z,5.00
2019-06-01T16:05:07.926Z,5.42
2019-06-01T16:07:36.576Z,7.55
2019-06-01T16:10:08.326Z,7.37
2019-06-01T16:12:37.311Z,6.17
2019-06-01T16:15:08.317Z,5.92
2019-06-01T16:17:36.981Z,7.67
2019-06-01T16:20:10.492Z,10.05
2019-06-01T16:22:39.245Z,7.42
2019-06-01T16:25:08.280Z,8.90
2019-06-01T16:27:36.965Z,8.73
2019-06-01T16:30:09.042Z,8.50
2019-06-01T16:32:39.610Z,7.30
2019-06-01T16:35:08.292Z,8.43
2019-06-01T16:37:36.884Z,6.92
2019-06-01T16:40:09.902Z,15.48
2019-06-01T16:42:37.789Z,10.07
2019-06-01T16:45:07.865Z,8.65
2019-06-01T16:47:36.542Z,10.88
2019-06-01T16:50:09.599Z,9.07
2019-06-01T16:52:38.292Z,10.50
2019-06-01T16:55:08.186Z,8.20
2019-06-01T16:57:36.824Z,9.00
2019-06-01T17:00:10.274Z,11.67
2019-06-01T17:02:38.953Z,17.50
2019-06-01T17:05:08.395Z,11.40
2019-06-01T17:07:36.978Z,11.37
2019-06-01T17:10:23.884Z,16.10
2019-06-01T17:12:42.291Z,12.23
2019-06-01T17:15:08.944Z,11.13
2019-06-01T17:17:37.594Z,9.30
2019-06-01T17:20:07.373Z,11.10
2019-06-01T17:22:39.063Z,11.67
2019-06-01T17:25:08.507Z,10.83
2019-06-01T17:27:37.017Z,8.20
2019-06-01T17:30:10.004Z,11.13
2019-06-01T17:32:36.640Z,16.23
2019-06-01T17:35:07.071Z,12.93
2019-06-01T17:37:35.650Z,11.27
2019-06-01T17:40:06.599Z,13.23
2019-06-01T17:42:35.218Z,12.87
2019-06-01T17:45:06.393Z,12.43
2019-06-01T17:47:40.968Z,12.07
2019-06-01T17:50:09.752Z,10.97
2019-06-01T17:52:38.521Z,10.63
2019-06-01T17:55:07.263Z,10.07
2019-06-01T17:57:35.909Z,12.17
2019-06-01T18:00:07.685Z,10.33
2019-06-01T18:02:36.411Z,11.27
2019-06-01T18:05:06.436Z,9.47
2019-06-01T18:07:35.113Z,12.80
2019-06-01T18:10:08.263Z,11.20
2019-06-01T18:12:37.115Z,9.53
2019-06-01T18:15:10.267Z,15.60
2019-06-01T18:17:38.983Z,10.47
2019-06-01T18:20:08.962Z,14.23
2019-06-01T18:22:37.616Z,14.13
2019-06-01T18:25:10.498Z,12.53
2019-06-01T18:27:39.240Z,22.47
2019-06-01T18:30:10.868Z,17.97
2019-06-01T18:32:39.544Z,17.87
2019-06-01T18:35:09.345Z,15.13
2019-06-01T18:37:38.139Z,20.33
2019-06-01T18:40:08.052Z,21.67
2019-06-01T18:42:37.380Z,17.63
2019-06-01T18:45:08.206Z,17.43
2019-06-01T18:47:36.944Z,15.60
2019-06-01T18:50:07.941Z,20.37
2019-06-01T18:52:36.632Z,17.57
2019-06-01T18:55:08.630Z,19.27
2019-06-01T18:57:40.213Z,20.90
2019-06-01T19:00:12.023Z,14.30
2019-06-01T19:02:40.427Z,15.90
2019-06-01T19:05:09.306Z,12.33
2019-06-01T19:07:37.953Z,11.20
2019-06-01T19:10:09.370Z,11.60
2019-06-01T19:12:38.112Z,12.73
2019-06-01T19:15:15.642Z,9.90
2019-06-01T19:17:38.089Z,10.77
2019-06-01T19:20:08.478Z,10.87
2019-06-01T19:22:37.221Z,13.03
2019-06-01T19:25:06.915Z,20.10
2019-06-01T19:27:35.558Z,9.23
2019-06-01T19:30:09.018Z,14.60
2019-06-01T19:32:37.960Z,14.03
2019-06-01T19:35:07.607Z,9.93
2019-06-01T19:37:38.525Z,12.43
2019-06-01T19:40:09.329Z,9.70
2019-06-01T19:42:38.044Z,14.27
2019-06-01T19:45:14.366Z,11.80
2019-06-01T19:47:37.749Z,12.90
2019-06-01T19:50:08.236Z,11.57
2019-06-01T19:52:36.796Z,11.23
2019-06-01T19:55:08.782Z,11.67
2019-06-01T19:57:37.558Z,11.80
2019-06-01T20:00:10.143Z,10.27
2019-06-01T20:02:38.811Z,13.67
2019-06-01T20:05:07.585Z,11.00
2019-06-01T20:07:36.144Z,13.80
2019-06-01T20:10:07.753Z,12.40
2019-06-01T20:12:36.402Z,18.23
2019-06-01T20:15:06.955Z,12.63
2019-06-01T20:17:35.592Z,14.03
2019-06-01T20:20:10.762Z,13.50
2019-06-01T20:22:39.273Z,13.90
2019-06-01T20:25:08.814Z,10.87
2019-06-01T20:27:37.432Z,14.17
2019-06-01T20:30:07.537Z,11.50
2019-06-01T20:32:36.179Z,13.23
2019-06-01T20:35:05.931Z,14.77
2019-06-01T20:37:34.496Z,11.97
2019-06-01T20:40:03.778Z,12.13
2019-06-01T20:42:33.068Z,14.77
2019-06-01T20:45:01.725Z,16.37
2019-06-01T20:47:30.244Z,16.93
2019-06-01T20:49:58.804Z,12.00
2019-06-01T20:52:28.105Z,13.60
2019-06-01T20:54:56.771Z,17.37
2019-06-01T20:57:25.292Z,14.07
2019-06-01T20:59:53.791Z,16.57
2019-06-01T21:02:22.384Z,15.37
2019-06-01T21:04:50.955Z,16.30
2019-06-01T21:07:19.981Z,15.60
2019-06-01T21:09:48.586Z,17.83
2019-06-01T21:12:18.437Z,20.57
2019-06-01T21:14:47.121Z,20.33
2019-06-01T21:17:16.467Z,18.00
2019-06-01T21:19:45.198Z,18.57
2019-06-01T21:22:14.505Z,18.33
2019-06-01T21:24:43.144Z,16.53
2019-06-01T21:27:11.860Z,21.73
2019-06-01T21:29:43.728Z,22.37
2019-06-01T21:32:12.345Z,20.57
2019-06-01T21:34:40.950Z,22.00
2019-06-01T21:37:09.595Z,19.73
2019-06-01T21:39:38.180Z,27.20
2019-06-01T21:42:06.846Z,18.20
2019-06-01T21:44:35.487Z,17.57
2019-06-01T21:47:04.172Z,20.50
2019-06-01T21:49:32.749Z,19.30
2019-06-01T21:52:01.356Z,16.63
2019-06-01T21:54:29.925Z,17.10
2019-06-01T21:56:58.537Z,18.13
2019-06-01T21:59:27.227Z,18.93
2019-06-01T22:01:55.866Z,19.80
2019-06-01T22:04:25.680Z,18.50
2019-06-01T22:06:54.315Z,18.30
2019-06-01T22:09:23.349Z,20.63
2019-06-01T22:11:52.118Z,19.40
2019-06-01T22:14:21.355Z,23.83
2019-06-01T22:16:50.019Z,20.80
2019-06-01T22:19:19.565Z,21.27
2019-06-01T22:21:48.191Z,22.93
2019-06-01T22:24:17.701Z,22.93
2019-06-01T22:26:46.440Z,19.40
2019-06-01T22:29:15.077Z,20.47
2019-06-01T22:31:43.667Z,20.20
2019-06-01T22:34:12.316Z,17.77
2019-06-01T22:36:40.815Z,18.50
2019-06-01T22:39:09.379Z,18.97
2019-06-01T22:41:37.917Z,16.63
2019-06-01T22:44:06.498Z,20.30
2019-06-01T22:46:35.101Z,18.00
2019-06-01T22:49:03.745Z,16.47
2019-06-01T22:51:33.274Z,17.77
2019-06-01T22:54:02.111Z,15.07
2019-06-01T22:56:31.491Z,14.70
2019-06-01T22:59:00.140Z,14.20
2019-06-01T23:01:28.901Z,14.50
2019-06-01T23:03:57.466Z,16.20
2019-06-01T23:06:27.050Z,16.47
2019-06-01T23:08:55.598Z,15.17
2019-06-01T23:11:25.148Z,16.07
2019-06-01T23:13:54.099Z,21.33
2019-06-01T23:16:23.623Z,16.27
2019-06-01T23:18:52.388Z,16.03
2019-06-01T23:21:21.825Z,17.97
2019-06-01T23:23:50.321Z,17.50
2019-06-01T23:26:18.831Z,18.37
2019-06-01T23:28:47.528Z,20.20
2019-06-01T23:31:16.138Z,19.77
2019-06-01T23:33:44.742Z,18.10
2019-06-01T23:36:13.341Z,21.20
2019-06-01T23:38:41.980Z,17.33
2019-06-01T23:41:10.637Z,16.73
2019-06-01T23:43:39.146Z,16.83
2019-06-01T23:46:07.803Z,17.23
2019-06-01T23:48:36.305Z,15.63
2019-06-01T23:51:04.958Z,17.13
2019-06-01T23:53:33.850Z,16.90
2019-06-01T23:56:02.564Z,17.87
2019-06-01T23:58:32.544Z,15.40
